Wichita, KS (67209)

11:24 PM CST on February 26, 2015 (GMT -0600)
Near the airport | Change Station
CLOSE
Current Station
Personal Weather Station
Location: Wichita, KS
Elevation: 1348 ft
Nearby Weather Stations

Elev 1348 ft 37.65 °N, 97.44 °W | Updated 4 minutes ago

Mostly Cloudy
Mostly Cloudy
14.7 °F
Feels Like 5 °F
N
7.0
Wind Variable Wind from NNE
Gusts 12.0 mph

Today
High -- | Low -- °F
--% Chance of Precip.
Yesterday
High -- | Low -- °F
Precip. -- in
7:05 AM 6:20 PM
Waxing Gibbous, 65% visible
Pressure 30.60 in
Visibility 10.0 miles
Clouds Mostly Cloudy 20000 ft
Windchill 5 °F
Dew Point 2 °F
Humidity 57%
Rainfall 0.00 in
Snow Depth Not available.
UV 0 out of 12
Pollen .40 out of 12
Air Quality Not available.
Flu Activity Not available.
METAR KICT 270453Z 04009KT 10SM BKN200 M09/M18 A3053 RMK AO2 SLP360 T10891183

More Conditions Fewer Conditions

Pressure 30.60 in
Visibility 10.0 miles
Clouds Mostly Cloudy 20000 ft
Windchill 5 °F
Dew Point 2 °F
Humidity 57%
Rainfall 0.00 in
Snow Depth Not available.
UV 0 out of 12
Pollen .40 out of 12
Air Quality Not available.
Flu Activity Not available.
METAR KICT 270453Z 04009KT 10SM BKN200 M09/M18 A3053 RMK AO2 SLP360 T10891183

More Conditions Fewer Conditions

10-Day Weather Forecast

Almanac

Astronomy

Feb. 26, 2015 Rise Set
Actual Time
Civil Twilight
Nautical Twilight
Astronomical Twilight
Moon
Length of Visible Light
Length of Day
Tomorrow will be .
, % of the Moon is Illuminated

Today's Extremes

State Highs State Lows

Community

WunderPhotos

Upload Photos

1,800,638 photos uploaded!

WunderBlogs® & News

Nearby

Air Quality

  Air Quality AQ Index Pollutant
Not available.

Snow Depth

Station Depth Elevation

Earthquake Activity

City Distance Mag. Time & Date
Minimum magnitude displayed is 2.5.

Coastal Water Temperatures

Place Temperature

Nearby Weather Stations